Time;durP1;ratioP1;P1;durP2;ratioP2;P2;SDS_P1;SDS_P2;PMS_P1;PMS_P2;Temp;Humidity;BMP_temperature;BMP_pressure;BME280_temperature;BME280_humidity;BME280_pressure;Samples;Min_cycle;Max_cycle;Signal;HPM_P1;HPM_P2
2023/11/05 00:00:12;;;;;;;1.27;0.30;;;;;;;9.74;100.00;96792.84;5187194;28;20438;-79
2023/11/05 00:02:42;;;;;;;2.05;0.40;;;;;;;9.69;100.00;96789.84;5187133;28;20029;-78
2023/11/05 00:05:15;;;;;;;2.65;0.50;;;;;;;9.70;100.00;96783.66;5188809;28;20126;-79
2023/11/05 00:07:46;;;;;;;1.83;0.40;;;;;;;9.67;100.00;96786.56;5187898;28;20025;-78
2023/11/05 00:10:16;;;;;;;0.60;0.20;;;;;;;9.61;100.00;96780.13;5185274;28;20034;-79
2023/11/05 00:12:46;;;;;;;3.08;0.50;;;;;;;9.63;100.00;96777.41;5186962;28;20426;-78
2023/11/05 00:15:17;;;;;;;1.55;0.40;;;;;;;9.60;100.00;96772.44;5183860;28;20042;-76
2023/11/05 00:17:47;;;;;;;0.52;0.30;;;;;;;9.50;100.00;96782.88;5185123;28;20032;-79
2023/11/05 00:20:18;;;;;;;1.35;0.30;;;;;;;9.59;100.00;96781.22;5184041;28;20124;-78
2023/11/05 00:22:48;;;;;;;0.77;0.40;;;;;;;9.57;100.00;96778.78;5183695;28;20103;-79
2023/11/05 00:25:18;;;;;;;1.00;0.30;;;;;;;9.48;100.00;96784.81;5189243;28;20646;-78
2023/11/05 00:27:49;;;;;;;2.45;0.30;;;;;;;9.53;100.00;96787.84;5183687;28;20056;-78
2023/11/05 00:30:19;;;;;;;3.25;0.40;;;;;;;9.51;100.00;96786.34;5187998;28;20396;-78
2023/11/05 00:32:49;;;;;;;1.42;0.35;;;;;;;9.53;100.00;96785.25;5183470;28;20036;-78
2023/11/05 00:35:19;;;;;;;1.10;0.30;;;;;;;9.49;100.00;96793.47;5184197;28;20028;-78
2023/11/05 00:37:50;;;;;;;1.75;0.20;;;;;;;9.47;100.00;96790.19;5183347;28;20182;-78
2023/11/05 00:40:20;;;;;;;1.08;0.40;;;;;;;9.66;100.00;96784.94;5186771;28;20025;-78
2023/11/05 00:42:50;;;;;;;1.65;0.30;;;;;;;9.71;100.00;96791.38;5185489;28;20033;-78
2023/11/05 00:45:21;;;;;;;0.80;0.40;;;;;;;9.86;100.00;96795.13;5188928;28;20021;-78
2023/11/05 00:47:51;;;;;;;3.00;0.40;;;;;;;9.85;100.00;96784.88;5185372;28;20116;-78
2023/11/05 00:50:21;;;;;;;2.28;0.43;;;;;;;9.89;100.00;96781.00;5186460;28;20052;-78
2023/11/05 00:52:52;;;;;;;0.95;0.28;;;;;;;9.89;100.00;96786.22;5184586;28;20040;-78
2023/11/05 00:55:22;;;;;;;1.90;0.40;;;;;;;9.79;100.00;96780.22;5185678;28;20025;-78
2023/11/05 00:57:52;;;;;;;0.70;0.30;;;;;;;9.96;100.00;96780.28;5182957;28;20022;-78
2023/11/05 01:00:23;;;;;;;1.80;0.30;;;;;;;9.88;100.00;96779.34;5186232;28;20652;-79
2023/11/05 01:02:53;;;;;;;1.70;0.40;;;;;;;9.75;100.00;96781.44;5183133;28;20034;-78
2023/11/05 01:05:23;;;;;;;2.15;0.80;;;;;;;9.62;100.00;96780.97;5188288;28;20029;-76
2023/11/05 01:07:54;;;;;;;1.80;0.47;;;;;;;9.63;100.00;96790.44;5185120;28;20025;-79
2023/11/05 01:10:25;;;;;;;1.23;0.60;;;;;;;9.53;100.00;96794.81;5185170;28;20491;-75
2023/11/05 01:12:55;;;;;;;1.65;0.30;;;;;;;9.41;100.00;96790.72;5185178;28;20029;-79
2023/11/05 01:15:26;;;;;;;2.60;0.40;;;;;;;9.26;100.00;96786.91;5185218;28;20518;-76
2023/11/05 01:17:57;;;;;;;1.90;0.30;;;;;;;9.18;100.00;96781.59;5186843;28;20030;-79
2023/11/05 01:20:27;;;;;;;2.15;0.32;;;;;;;9.13;100.00;96787.19;5189458;28;20036;-78
2023/11/05 01:22:58;;;;;;;2.05;0.20;;;;;;;9.14;100.00;96777.63;5185204;28;20022;-79
2023/11/05 01:25:28;;;;;;;2.63;0.30;;;;;;;9.19;100.00;96775.41;5184927;28;20048;-78
2023/11/05 01:27:58;;;;;;;1.45;0.20;;;;;;;9.17;100.00;96778.13;5187824;28;20443;-79
2023/11/05 01:30:29;;;;;;;2.33;0.20;;;;;;;9.11;100.00;96775.28;5184590;28;20607;-78
2023/11/05 01:32:59;;;;;;;0.52;0.20;;;;;;;9.13;100.00;96775.13;5183208;28;20621;-78
2023/11/05 01:35:29;;;;;;;0.70;0.35;;;;;;;9.08;100.00;96772.94;5169783;28;20400;-78
2023/11/05 01:37:59;;;;;;;1.23;0.43;;;;;;;9.22;100.00;96775.97;5182881;28;20099;-78
2023/11/05 01:40:30;;;;;;;0.75;0.10;;;;;;;9.23;100.00;96785.41;5186916;28;21687;-78
2023/11/05 01:43:00;;;;;;;1.55;0.30;;;;;;;9.31;100.00;96784.72;5187834;28;20037;-78
2023/11/05 01:45:31;;;;;;;1.20;0.30;;;;;;;9.28;100.00;96785.00;5187542;28;20487;-79
2023/11/05 01:48:01;;;;;;;0.30;0.20;;;;;;;9.29;100.00;96786.66;5184288;28;20021;-78
2023/11/05 01:50:33;;;;;;;0.43;0.30;;;;;;;9.24;100.00;96775.81;5186207;28;20033;-79
2023/11/05 01:53:04;;;;;;;1.25;0.20;;;;;;;9.37;100.00;96771.13;5181003;28;20502;-77
2023/11/05 01:55:36;;;;;;;1.08;0.40;;;;;;;9.41;100.00;96777.69;5184463;28;20033;-78
2023/11/05 01:58:06;;;;;;;0.77;0.30;;;;;;;9.56;100.00;96776.31;5186351;28;20037;-78
2023/11/05 02:00:37;;;;;;;1.65;0.38;;;;;;;9.55;100.00;96772.88;5183731;28;20598;-78
2023/11/05 02:03:08;;;;;;;2.58;0.43;;;;;;;9.45;100.00;96773.88;5184502;28;20454;-78
2023/11/05 02:05:38;;;;;;;2.80;0.38;;;;;;;9.47;100.00;96764.13;5184593;28;20036;-78
2023/11/05 02:08:08;;;;;;;1.00;0.40;;;;;;;9.44;100.00;96759.16;5183141;28;20025;-79
2023/11/05 02:10:39;;;;;;;2.17;0.40;;;;;;;9.55;100.00;96751.19;5184259;28;20030;-78
2023/11/05 02:13:09;;;;;;;2.63;0.40;;;;;;;9.61;100.00;96751.47;5187144;28;20037;-79
2023/11/05 02:15:39;;;;;;;3.80;0.50;;;;;;;9.61;100.00;96740.19;5184260;28;20076;-78
2023/11/05 02:18:09;;;;;;;1.38;0.43;;;;;;;9.66;100.00;96743.22;5190464;28;20029;-78
2023/11/05 02:20:40;;;;;;;2.17;0.50;;;;;;;9.72;100.00;96727.00;5189978;28;20069;-76
2023/11/05 02:23:17;;;;;;;1.50;0.50;;;;;;;9.73;100.00;96726.03;5187947;28;20247;-79
2023/11/05 02:25:48;;;;;;;2.60;0.52;;;;;;;9.74;100.00;96725.91;5186135;28;20353;-79
2023/11/05 02:28:18;;;;;;;4.53;0.50;;;;;;;9.81;100.00;96721.75;5190720;28;21086;-78
2023/11/05 02:30:54;;;;;;;1.85;0.60;;;;;;;9.93;100.00;96714.56;5187703;28;20033;-76
2023/11/05 02:33:24;;;;;;;3.05;0.50;;;;;;;9.96;100.00;96704.66;5187865;28;20041;-75
2023/11/05 02:35:55;;;;;;;1.63;0.45;;;;;;;9.91;100.00;96709.50;5189213;28;20442;-79
2023/11/05 02:38:25;;;;;;;3.60;0.50;;;;;;;9.97;100.00;96702.88;5189005;28;20116;-77
2023/11/05 02:40:55;;;;;;;3.20;0.60;;;;;;;9.96;100.00;96706.47;5190263;28;20044;-78
2023/11/05 02:43:26;;;;;;;3.38;0.55;;;;;;;10.00;100.00;96700.78;5187917;28;20080;-78
2023/11/05 02:45:56;;;;;;;3.47;0.80;;;;;;;10.05;100.00;96697.78;5188012;28;20030;-78
2023/11/05 02:48:26;;;;;;;5.47;0.47;;;;;;;10.13;100.00;96701.31;5187669;28;20044;-79
2023/11/05 02:50:56;;;;;;;2.08;0.45;;;;;;;10.04;100.00;96704.81;5187701;28;20053;-79
2023/11/05 02:53:27;;;;;;;3.10;0.40;;;;;;;9.96;100.00;96704.66;5190146;28;20441;-78
2023/11/05 02:55:57;;;;;;;1.63;0.57;;;;;;;9.93;100.00;96696.31;5187279;28;20018;-78
2023/11/05 02:58:28;;;;;;;4.38;0.93;;;;;;;9.86;100.00;96703.06;5188412;28;20021;-79
2023/11/05 03:00:58;;;;;;;2.40;0.50;;;;;;;9.78;100.00;96702.97;5189107;28;20429;-79
2023/11/05 03:03:29;;;;;;;5.78;0.70;;;;;;;9.77;100.00;96696.09;5188699;28;20029;-77
2023/11/05 03:05:59;;;;;;;1.92;0.63;;;;;;;9.70;100.00;96702.88;5185939;28;20026;-78
2023/11/05 03:08:29;;;;;;;4.53;0.65;;;;;;;9.64;100.00;96701.66;5184804;28;20108;-78
2023/11/05 03:10:59;;;;;;;5.15;0.68;;;;;;;9.64;100.00;96706.06;5186952;28;20026;-78
2023/11/05 03:13:30;;;;;;;1.88;0.57;;;;;;;9.65;100.00;96699.88;5187906;28;20328;-78
2023/11/05 03:16:00;;;;;;;3.45;0.47;;;;;;;9.62;100.00;96706.19;5189355;28;20042;-79
2023/11/05 03:18:30;;;;;;;4.55;0.40;;;;;;;9.58;100.00;96693.56;5186528;28;20022;-78
2023/11/05 03:21:01;;;;;;;3.72;0.70;;;;;;;9.48;100.00;96705.84;5186295;28;20033;-78
2023/11/05 03:23:31;;;;;;;2.53;0.70;;;;;;;9.50;100.00;96701.31;5188336;28;20104;-78
2023/11/05 03:26:01;;;;;;;4.40;0.70;;;;;;;9.42;100.00;96694.19;5188920;28;20030;-78
2023/11/05 03:28:32;;;;;;;6.60;0.60;;;;;;;9.42;100.00;96690.75;5183876;28;20029;-78
2023/11/05 03:31:02;;;;;;;2.40;0.52;;;;;;;9.42;100.00;96704.63;5188246;28;20029;-79
2023/11/05 03:33:33;;;;;;;4.57;0.70;;;;;;;9.34;100.00;96701.06;5189332;28;20498;-78
2023/11/05 03:36:03;;;;;;;3.00;0.55;;;;;;;9.34;100.00;96694.06;5186015;28;20022;-79
2023/11/05 03:38:34;;;;;;;2.60;0.50;;;;;;;9.31;100.00;96690.94;5190240;28;20127;-79
2023/11/05 03:41:07;;;;;;;4.63;0.70;;;;;;;9.30;100.00;96689.31;5188107;28;20014;-79
2023/11/05 03:43:37;;;;;;;5.30;0.70;;;;;;;9.35;100.00;96690.50;5187678;28;20036;-79
2023/11/05 03:46:12;;;;;;;2.95;0.60;;;;;;;9.47;100.00;96691.16;5187633;28;20499;-79
2023/11/05 03:48:43;;;;;;;3.45;0.50;;;;;;;9.58;100.00;96694.41;5188068;28;20453;-78
2023/11/05 03:51:14;;;;;;;3.13;0.50;;;;;;;9.64;100.00;96693.03;5185466;28;20034;-79
2023/11/05 03:53:45;;;;;;;3.92;0.55;;;;;;;9.69;100.00;96696.81;5187216;28;20037;-79
2023/11/05 03:56:16;;;;;;;3.58;0.70;;;;;;;9.78;100.00;96695.97;5190706;28;20061;-79
2023/11/05 03:58:47;;;;;;;2.80;0.50;;;;;;;9.84;100.00;96690.16;5187297;28;20060;-78
2023/11/05 04:01:19;;;;;;;4.47;0.95;;;;;;;9.94;100.00;96679.69;5189623;28;20053;-78
2023/11/05 04:03:50;;;;;;;5.25;0.98;;;;;;;10.01;100.00;96685.97;5187407;28;20033;-79
2023/11/05 04:06:20;;;;;;;4.05;0.68;;;;;;;10.07;100.00;96674.97;5190250;28;20037;-78
2023/11/05 04:08:51;;;;;;;4.88;0.70;;;;;;;10.10;100.00;96680.72;5189742;28;20025;-78
2023/11/05 04:11:21;;;;;;;2.50;0.60;;;;;;;10.02;100.00;96685.84;5190549;28;20029;-78
2023/11/05 04:13:51;;;;;;;2.95;0.70;;;;;;;10.03;100.00;96681.47;5188897;28;20323;-79
2023/11/05 04:16:21;;;;;;;2.83;0.60;;;;;;;10.08;100.00;96679.22;5193933;28;20037;-79
2023/11/05 04:18:52;;;;;;;5.30;0.70;;;;;;;10.10;100.00;96685.13;5190676;28;20025;-78
2023/11/05 04:21:22;;;;;;;3.85;0.60;;;;;;;10.13;100.00;96672.63;5191064;28;20024;-78
2023/11/05 04:23:52;;;;;;;4.55;0.85;;;;;;;10.15;100.00;96675.88;5193296;28;20026;-79
2023/11/05 04:26:23;;;;;;;2.70;0.52;;;;;;;10.15;100.00;96669.88;5192208;28;20052;-79
2023/11/05 04:28:53;;;;;;;6.85;0.75;;;;;;;10.21;100.00;96666.66;5190737;28;20483;-79
2023/11/05 04:31:24;;;;;;;4.80;0.75;;;;;;;10.22;100.00;96666.53;5194023;28;20034;-78
2023/11/05 04:33:54;;;;;;;2.85;0.65;;;;;;;10.26;100.00;96664.41;5190657;28;20093;-79
2023/11/05 04:36:25;;;;;;;6.45;0.90;;;;;;;10.21;100.00;96662.28;5190468;28;20112;-76
2023/11/05 04:38:55;;;;;;;2.78;0.75;;;;;;;10.25;100.00;96668.84;5187392;28;20032;-79
2023/11/05 04:41:25;;;;;;;4.10;0.80;;;;;;;10.23;100.00;96662.13;5194432;28;20495;-77
2023/11/05 04:43:56;;;;;;;3.75;0.80;;;;;;;10.25;100.00;96663.63;5189346;28;20115;-78
2023/11/05 04:46:27;;;;;;;4.25;0.65;;;;;;;10.27;100.00;96656.47;5191117;28;20061;-78
2023/11/05 04:48:57;;;;;;;3.55;0.47;;;;;;;10.32;100.00;96653.41;5190305;28;20072;-79
2023/11/05 04:51:29;;;;;;;2.13;0.70;;;;;;;10.32;100.00;96656.81;5185495;28;20056;-79
2023/11/05 04:53:59;;;;;;;3.50;0.60;;;;;;;10.23;100.00;96656.91;5190234;28;20091;-79
2023/11/05 04:56:29;;;;;;;5.88;0.82;;;;;;;10.26;100.00;96653.97;5189947;28;20017;-76
2023/11/05 04:59:00;;;;;;;1.30;0.40;;;;;;;10.34;100.00;96651.47;5190526;28;20032;-79
2023/11/05 05:01:30;;;;;;;3.05;0.60;;;;;;;10.41;100.00;96642.06;5184423;28;20021;-76
2023/11/05 05:04:00;;;;;;;2.00;0.55;;;;;;;10.31;100.00;96649.16;5189163;28;20887;-79
2023/11/05 05:06:31;;;;;;;3.20;0.73;;;;;;;10.41;100.00;96648.13;5193819;28;20091;-76
2023/11/05 05:09:02;;;;;;;3.45;0.63;;;;;;;10.31;100.00;96649.16;5189337;28;20030;-79
2023/11/05 05:11:33;;;;;;;4.45;0.75;;;;;;;10.38;100.00;96642.38;5189448;28;20033;-79
2023/11/05 05:14:03;;;;;;;2.97;0.60;;;;;;;10.36;100.00;96654.75;5185940;28;20564;-79
2023/11/05 05:16:34;;;;;;;2.33;0.75;;;;;;;10.25;100.00;96658.41;5187306;28;20037;-79
2023/11/05 05:19:04;;;;;;;3.10;0.68;;;;;;;10.24;100.00;96648.94;5187626;28;20514;-79
2023/11/05 05:21:41;;;;;;;3.30;0.73;;;;;;;10.23;100.00;96651.69;5185556;28;20057;-78
2023/11/05 05:24:12;;;;;;;1.50;0.52;;;;;;;10.21;100.00;96646.63;5188124;28;20058;-79
2023/11/05 05:26:43;;;;;;;3.67;0.70;;;;;;;10.12;100.00;96649.28;5189029;28;20033;-76
2023/11/05 05:29:13;;;;;;;1.98;0.60;;;;;;;10.04;100.00;96649.19;5186168;28;20026;-78
2023/11/05 05:31:43;;;;;;;2.80;0.70;;;;;;;10.07;100.00;96656.72;5188235;28;20030;-76
2023/11/05 05:34:14;;;;;;;5.45;0.90;;;;;;;9.92;100.00;96651.16;5186961;28;20153;-79
2023/11/05 05:36:44;;;;;;;7.85;0.90;;;;;;;9.89;100.00;96653.22;5186706;28;20044;-77
2023/11/05 05:39:14;;;;;;;3.97;1.13;;;;;;;9.95;100.00;96653.47;5188298;28;20068;-79
2023/11/05 05:41:45;;;;;;;4.95;0.90;;;;;;;10.04;100.00;96651.81;5186323;28;20025;-77
2023/11/05 05:44:15;;;;;;;2.38;0.50;;;;;;;9.97;100.00;96648.94;5188321;28;20302;-79
2023/11/05 05:46:45;;;;;;;4.90;0.80;;;;;;;9.97;100.00;96656.75;5185828;28;20095;-78
2023/11/05 05:49:16;;;;;;;3.65;0.57;;;;;;;9.85;100.00;96651.91;5188300;28;20026;-78
2023/11/05 05:51:46;;;;;;;5.93;0.80;;;;;;;9.96;100.00;96651.69;5184818;28;20482;-78
2023/11/05 05:54:16;;;;;;;1.88;0.70;;;;;;;9.91;100.00;96646.91;5194517;28;20042;-78
2023/11/05 05:56:46;;;;;;;2.08;0.50;;;;;;;9.83;100.00;96643.41;5189351;28;20116;-77
2023/11/05 05:59:17;;;;;;;3.53;0.65;;;;;;;9.86;100.00;96637.88;5192766;28;20038;-78
2023/11/05 06:01:47;;;;;;;1.65;0.50;;;;;;;9.84;100.00;96632.81;5191062;28;20106;-78
2023/11/05 06:04:17;;;;;;;6.68;0.70;;;;;;;9.93;100.00;96631.09;5191360;28;20476;-78
2023/11/05 06:06:48;;;;;;;3.38;0.77;;;;;;;9.78;100.00;96633.41;5188598;28;20029;-79
2023/11/05 06:09:22;;;;;;;2.92;0.65;;;;;;;9.86;100.00;96630.88;5190003;28;20408;-78
2023/11/05 06:11:53;;;;;;;4.40;0.57;;;;;;;9.89;100.00;96629.78;5187639;28;20109;-79
2023/11/05 06:14:23;;;;;;;1.85;0.50;;;;;;;9.75;100.00;96623.28;5192337;28;20448;-79
2023/11/05 06:16:54;;;;;;;3.15;0.55;;;;;;;9.77;100.00;96626.56;5188723;28;20057;-78
2023/11/05 06:19:25;;;;;;;2.83;0.52;;;;;;;9.81;100.00;96627.09;5188782;28;20187;-76
2023/11/05 06:21:55;;;;;;;2.80;0.50;;;;;;;9.77;100.00;96621.34;5187647;28;20022;-78
2023/11/05 06:24:25;;;;;;;3.05;0.90;;;;;;;9.78;100.00;96619.53;5188174;28;20018;-77
2023/11/05 06:26:55;;;;;;;3.50;0.65;;;;;;;9.86;100.00;96620.44;5189496;28;20817;-79
2023/11/05 06:29:26;;;;;;;4.28;0.70;;;;;;;9.82;100.00;96615.69;5185899;28;20033;-77
2023/11/05 06:31:56;;;;;;;2.17;0.65;;;;;;;9.77;100.00;96620.50;5189549;28;20036;-79
2023/11/05 06:34:26;;;;;;;3.15;0.82;;;;;;;9.75;100.00;96625.88;5189401;28;20446;-78
2023/11/05 06:37:02;;;;;;;4.45;0.50;;;;;;;9.75;100.00;96617.22;5190112;28;20037;-79
2023/11/05 06:39:33;;;;;;;4.00;0.85;;;;;;;9.75;100.00;96610.25;5188297;28;20029;-79
2023/11/05 06:42:03;;;;;;;3.90;0.70;;;;;;;9.74;100.00;96612.97;5187812;28;20084;-78
2023/11/05 06:44:34;;;;;;;3.05;0.57;;;;;;;9.77;100.00;96599.66;5189704;28;20030;-79
2023/11/05 06:47:04;;;;;;;4.10;0.60;;;;;;;9.76;100.00;96606.66;5194866;28;20060;-79
2023/11/05 06:49:34;;;;;;;5.18;0.80;;;;;;;9.74;100.00;96611.22;5193473;28;20422;-78
2023/11/05 06:52:05;;;;;;;3.40;0.63;;;;;;;9.72;100.00;96596.66;5186568;28;20058;-79
2023/11/05 06:54:35;;;;;;;5.45;0.80;;;;;;;9.75;100.00;96606.81;5191613;28;20040;-78
2023/11/05 06:57:05;;;;;;;2.45;0.57;;;;;;;9.88;100.00;96609.88;5187639;28;20322;-79
2023/11/05 06:59:36;;;;;;;4.35;0.65;;;;;;;9.92;100.00;96603.41;5189652;28;20808;-79
2023/11/05 07:02:10;;;;;;;5.03;0.70;;;;;;;9.92;100.00;96606.00;5185725;28;20025;-79
2023/11/05 07:04:41;;;;;;;3.33;0.77;;;;;;;9.82;100.00;96608.69;5183552;28;20499;-76
2023/11/05 07:07:11;;;;;;;2.55;0.65;;;;;;;9.89;100.00;96614.13;5185890;28;20060;-79
2023/11/05 07:09:41;;;;;;;2.50;0.57;;;;;;;10.02;100.00;96609.41;5188441;28;20053;-75
2023/11/05 07:12:12;;;;;;;1.35;0.30;;;;;;;9.98;100.00;96602.81;5189241;28;20364;-79
2023/11/05 07:14:42;;;;;;;3.17;0.47;;;;;;;9.99;100.00;96609.69;5186803;28;20453;-77
2023/11/05 07:17:13;;;;;;;6.18;0.60;;;;;;;10.08;100.00;96614.03;5188631;28;20556;-79
2023/11/05 07:19:43;;;;;;;6.22;0.65;;;;;;;10.06;100.00;96621.19;5187411;28;20490;-76
2023/11/05 07:22:14;;;;;;;0.52;0.30;;;;;;;10.04;100.00;96617.91;5186613;28;20037;-78
2023/11/05 07:24:44;;;;;;;2.13;0.50;;;;;;;10.01;100.00;96612.97;5185489;28;20283;-78
2023/11/05 07:27:15;;;;;;;0.80;0.40;;;;;;;10.07;100.00;96620.22;5190250;28;20098;-78
2023/11/05 07:29:46;;;;;;;1.35;0.30;;;;;;;10.11;100.00;96616.34;5186407;28;20025;-79
2023/11/05 07:32:17;;;;;;;2.50;0.60;;;;;;;10.11;100.00;96619.78;5188394;28;20026;-78
2023/11/05 07:34:47;;;;;;;3.90;0.60;;;;;;;10.05;100.00;96619.53;5183366;28;20506;-78
2023/11/05 07:37:18;;;;;;;1.63;0.35;;;;;;;10.09;100.00;96613.06;5190246;28;20257;-78
2023/11/05 07:39:48;;;;;;;3.78;0.60;;;;;;;10.13;100.00;96617.03;5187757;28;20063;-78
2023/11/05 07:42:19;;;;;;;1.52;0.40;;;;;;;10.14;100.00;96610.84;5175313;28;20587;-78
2023/11/05 07:44:49;;;;;;;3.05;0.50;;;;;;;10.15;100.00;96612.47;5178915;28;20029;-78
2023/11/05 07:47:20;;;;;;;1.73;0.70;;;;;;;10.22;100.00;96613.50;5185646;28;20074;-78
2023/11/05 07:49:50;;;;;;;4.95;0.63;;;;;;;10.28;100.00;96608.53;5177152;28;20033;-78
2023/11/05 07:52:20;;;;;;;3.28;0.52;;;;;;;10.34;100.00;96613.13;5180860;28;20196;-79
2023/11/05 07:54:51;;;;;;;4.10;0.60;;;;;;;10.42;100.00;96612.38;5173474;28;20034;-78
2023/11/05 07:57:21;;;;;;;2.75;0.60;;;;;;;10.45;100.00;96612.91;5183300;28;20036;-79
2023/11/05 07:59:51;;;;;;;1.05;0.45;;;;;;;10.57;100.00;96610.88;5180663;28;20034;-78
2023/11/05 08:02:22;;;;;;;2.78;0.47;;;;;;;10.53;100.00;96615.56;5174399;28;20407;-75
2023/11/05 08:04:52;;;;;;;1.27;0.40;;;;;;;10.58;100.00;96617.75;5171397;28;20045;-78
2023/11/05 08:07:23;;;;;;;2.15;0.57;;;;;;;10.59;100.00;96620.22;5177502;28;20525;-78
2023/11/05 08:09:54;;;;;;;1.35;0.43;;;;;;;10.60;100.00;96619.25;5166574;28;20650;-75
2023/11/05 08:12:24;;;;;;;2.80;0.60;;;;;;;10.58;100.00;96620.34;5170527;28;20030;-75
2023/11/05 08:14:54;;;;;;;1.40;0.20;;;;;;;10.67;100.00;96619.47;5179060;28;20042;-77
2023/11/05 08:17:25;;;;;;;1.55;0.40;;;;;;;10.72;100.00;96622.44;5178520;28;20135;-75
2023/11/05 08:19:55;;;;;;;2.78;0.43;;;;;;;10.74;100.00;96631.75;5175896;28;20041;-77
2023/11/05 08:22:26;;;;;;;2.10;0.60;;;;;;;10.67;100.00;96624.69;5175201;28;20024;-78
2023/11/05 08:24:57;;;;;;;1.20;0.40;;;;;;;10.76;100.00;96632.44;5182807;28;20064;-77
2023/11/05 08:27:27;;;;;;;1.23;0.30;;;;;;;10.82;100.00;96629.19;5177185;28;20026;-76
2023/11/05 08:29:58;;;;;;;3.60;0.40;;;;;;;10.82;100.00;96618.75;5178733;28;20033;-76
2023/11/05 08:32:28;;;;;;;1.35;0.50;;;;;;;10.92;100.00;96623.88;5177198;28;20020;-77
2023/11/05 08:34:58;;;;;;;3.47;0.50;;;;;;;10.92;100.00;96627.31;5178008;28;20108;-77
2023/11/05 08:37:29;;;;;;;1.88;0.40;;;;;;;10.93;100.00;96620.28;5179980;28;20032;-78
2023/11/05 08:39:59;;;;;;;1.15;0.32;;;;;;;11.02;100.00;96635.84;5178425;28;20117;-77
2023/11/05 08:42:29;;;;;;;1.98;0.32;;;;;;;10.94;100.00;96629.75;5184079;28;20738;-78
2023/11/05 08:45:00;;;;;;;3.47;0.50;;;;;;;10.93;100.00;96635.97;5178396;28;20033;-78
2023/11/05 08:47:30;;;;;;;1.63;0.47;;;;;;;10.98;100.00;96633.69;5178410;28;20021;-78
2023/11/05 08:50:03;;;;;;;2.45;0.40;;;;;;;10.98;100.00;96631.91;5177739;28;21590;-78
2023/11/05 08:52:34;;;;;;;3.75;0.47;;;;;;;10.93;100.00;96639.41;5176222;28;20592;-79
2023/11/05 08:55:06;;;;;;;2.15;0.32;;;;;;;10.99;100.00;96648.44;5180856;28;20049;-77
2023/11/05 08:57:37;;;;;;;2.83;0.40;;;;;;;11.05;100.00;96639.00;5185016;28;20044;-78
2023/11/05 09:00:11;;;;;;;5.20;0.60;;;;;;;11.07;100.00;96646.69;5181295;28;20109;-77
2023/11/05 09:02:41;;;;;;;1.63;0.47;;;;;;;11.17;100.00;96643.00;5180306;28;20100;-76
2023/11/05 09:05:12;;;;;;;5.15;0.52;;;;;;;11.27;100.00;96638.47;5182401;28;20029;-78
2023/11/05 09:07:43;;;;;;;1.02;0.30;;;;;;;11.38;100.00;96645.22;5175779;28;20490;-76
2023/11/05 09:10:15;;;;;;;0.50;0.30;;;;;;;11.38;100.00;96640.81;5183584;28;20574;-78
2023/11/05 09:12:50;;;;;;;3.15;0.50;;;;;;;11.68;100.00;96645.59;5177339;28;20284;-76
2023/11/05 09:15:22;;;;;;;0.47;0.10;;;;;;;12.06;100.00;96647.69;5183271;28;20053;-79
2023/11/05 09:17:52;;;;;;;0.80;0.20;;;;;;;12.45;100.00;96642.69;5182609;28;20453;-79
2023/11/05 09:20:23;;;;;;;3.75;0.30;;;;;;;12.64;100.00;96634.50;5183163;28;20032;-79
2023/11/05 09:22:53;;;;;;;1.33;0.20;;;;;;;12.56;100.00;96645.81;5182930;28;20060;-76
2023/11/05 09:25:24;;;;;;;3.53;0.20;;;;;;;12.33;100.00;96651.81;5185586;28;20041;-76
2023/11/05 09:27:55;;;;;;;1.15;0.20;;;;;;;12.28;100.00;96648.88;5182455;28;20037;-75
2023/11/05 09:30:25;;;;;;;1.83;0.57;;;;;;;11.99;100.00;96659.72;5192722;28;20037;-78
2023/11/05 09:32:55;;;;;;;2.42;0.13;;;;;;;11.83;100.00;96664.94;5185372;28;20064;-76
2023/11/05 09:35:26;;;;;;;0.30;0.10;;;;;;;11.87;100.00;96658.41;5186384;28;20037;-78
2023/11/05 09:37:57;;;;;;;1.15;0.20;;;;;;;11.77;100.00;96673.41;5184210;28;20179;-76
2023/11/05 09:40:27;;;;;;;3.10;0.43;;;;;;;11.69;100.00;96670.75;5191095;28;20029;-78
2023/11/05 09:43:01;;;;;;;0.73;0.22;;;;;;;11.68;100.00;96671.75;5186282;28;20040;-76
2023/11/05 09:45:34;;;;;;;2.92;0.40;;;;;;;11.71;100.00;96679.25;5180784;28;20039;-79
2023/11/05 09:48:09;;;;;;;0.75;0.20;;;;;;;11.72;100.00;96675.66;5185621;28;20513;-77
2023/11/05 09:50:41;;;;;;;2.47;0.38;;;;;;;11.75;100.00;96670.13;5188652;28;20034;-79
2023/11/05 09:53:17;;;;;;;0.63;0.10;;;;;;;11.79;100.00;96674.06;5184769;28;20223;-78
2023/11/05 09:55:47;;;;;;;0.75;0.28;;;;;;;11.84;100.00;96684.88;5179526;28;20204;-78
2023/11/05 09:58:18;;;;;;;1.13;0.20;;;;;;;12.02;100.00;96677.75;5186823;28;20215;-79
2023/11/05 10:00:50;;;;;;;0.65;0.15;;;;;;;12.05;100.00;96681.84;5185442;28;20570;-76
2023/11/05 10:03:21;;;;;;;0.52;0.10;;;;;;;12.14;100.00;96675.66;5188439;28;20311;-78
2023/11/05 10:05:52;;;;;;;1.48;0.10;;;;;;;12.30;100.00;96686.97;5184425;28;20139;-78
2023/11/05 10:08:24;;;;;;;1.98;0.20;;;;;;;12.37;100.00;96681.94;5188603;28;20041;-79
2023/11/05 10:10:58;;;;;;;2.05;0.20;;;;;;;12.41;100.00;96683.25;5188403;28;20284;-79
2023/11/05 10:13:28;;;;;;;1.23;0.30;;;;;;;12.37;100.00;96685.38;5190473;28;20152;-79
2023/11/05 10:15:59;;;;;;;1.67;0.10;;;;;;;12.22;100.00;96689.59;5186272;28;20034;-76
2023/11/05 10:18:34;;;;;;;0.65;0.10;;;;;;;12.38;100.00;96696.66;5186858;28;20523;-79
2023/11/05 10:21:05;;;;;;;2.33;0.20;;;;;;;12.26;100.00;96698.75;5183911;28;20037;-79
2023/11/05 10:23:50;;;;;;;0.30;0.20;;;;;;;12.34;100.00;96706.66;5187469;28;20052;-79
2023/11/05 10:26:31;;;;;;;0.70;0.30;;;;;;;12.45;100.00;96703.72;5190526;28;20037;-79
2023/11/05 10:29:03;;;;;;;0.95;0.32;;;;;;;12.46;100.00;96710.59;5181909;28;20030;-78
2023/11/05 10:31:36;;;;;;;1.10;0.30;;;;;;;12.47;100.00;96706.19;5190266;28;20182;-79
2023/11/05 10:34:08;;;;;;;0.52;0.10;;;;;;;12.30;100.00;96705.31;5186161;28;20041;-79
2023/11/05 10:36:39;;;;;;;0.20;0.10;;;;;;;12.33;100.00;96718.06;5186359;28;20106;-78
2023/11/05 10:39:10;;;;;;;2.10;0.43;;;;;;;12.46;100.00;96721.06;5181086;28;20037;-79
2023/11/05 10:41:42;;;;;;;1.98;0.10;;;;;;;12.47;100.00;96722.69;5180132;28;20537;-78
2023/11/05 10:44:15;;;;;;;1.85;0.22;;;;;;;12.55;100.00;96714.88;5183172;28;20046;-78
2023/11/05 10:46:47;;;;;;;2.72;0.30;;;;;;;12.63;100.00;96714.88;5182233;28;20341;-78
2023/11/05 10:49:18;;;;;;;0.93;0.20;;;;;;;12.59;100.00;96718.81;5179866;28;20076;-79
2023/11/05 10:51:49;;;;;;;2.75;0.60;;;;;;;12.55;100.00;96725.34;5180875;28;20160;-78
2023/11/05 10:54:20;;;;;;;0.40;0.13;;;;;;;12.61;100.00;96727.31;5183807;28;21030;-78
2023/11/05 10:56:51;;;;;;;1.23;0.30;;;;;;;12.50;100.00;96730.22;5181596;28;20034;-76
2023/11/05 10:59:37;;;;;;;0.45;0.30;;;;;;;12.67;100.00;96725.84;5187461;28;20110;-79
2023/11/05 11:02:08;;;;;;;1.00;0.30;;;;;;;12.61;100.00;96737.00;5183413;28;20026;-78
2023/11/05 11:04:38;;;;;;;0.75;0.25;;;;;;;12.67;100.00;96736.34;5184811;28;20557;-78
2023/11/05 11:07:11;;;;;;;0.88;0.50;;;;;;;12.68;100.00;96740.59;5183256;28;20088;-78
2023/11/05 11:09:43;;;;;;;0.75;0.20;;;;;;;12.68;100.00;96732.72;5179526;28;20037;-79
2023/11/05 11:12:30;;;;;;;2.08;0.35;;;;;;;12.69;100.00;96729.97;5186933;28;20083;-79
2023/11/05 11:15:07;;;;;;;1.08;0.28;;;;;;;12.69;100.00;96740.44;5184780;28;20156;-79
2023/11/05 11:17:39;;;;;;;0.95;0.30;;;;;;;12.82;100.00;96740.78;5183823;28;20033;-78
2023/11/05 11:20:11;;;;;;;0.80;0.35;;;;;;;12.71;100.00;96743.72;5184846;28;20046;-79
2023/11/05 11:22:45;;;;;;;1.35;0.30;;;;;;;12.76;100.00;96749.28;5182088;28;20797;-78
2023/11/05 11:25:19;;;;;;;2.63;0.50;;;;;;;12.89;100.00;96747.03;5184851;28;20049;-78
2023/11/05 11:27:49;;;;;;;3.08;0.70;;;;;;;12.96;100.00;96752.47;5183492;28;20095;-78
2023/11/05 11:30:20;;;;;;;0.52;0.32;;;;;;;13.10;100.00;96757.88;5189309;28;20502;-79
2023/11/05 11:32:50;;;;;;;3.00;0.40;;;;;;;13.09;100.00;96749.19;5183916;28;20034;-79
2023/11/05 11:35:21;;;;;;;1.23;0.30;;;;;;;13.16;100.00;96755.41;5183773;28;20041;-77
2023/11/05 11:37:51;;;;;;;1.40;0.45;;;;;;;13.39;100.00;96758.22;5181202;28;20021;-77
2023/11/05 11:40:21;;;;;;;1.20;0.50;;;;;;;13.27;100.00;96767.38;5179356;28;20514;-79
2023/11/05 11:42:52;;;;;;;1.15;0.40;;;;;;;13.37;100.00;96768.84;5184288;28;20038;-79
2023/11/05 11:45:22;;;;;;;2.28;0.70;;;;;;;13.33;100.00;96778.03;5183259;28;20035;-79